Time;durP1;ratioP1;P1;durP2;ratioP2;P2;SDS_P1;SDS_P2;PMS_P1;PMS_P2;Temp;Humidity;BMP_temperature;BMP_pressure;BME280_temperature;BME280_humidity;BME280_pressure;Samples;Min_cycle;Max_cycle;Signal;HPM_P1;HPM_P2
2022/04/02 00:00:28;;;;;;;3.35;3.03;;;;;;;;;;5012813;28;21119;-60
2022/04/02 00:02:55;;;;;;;3.50;3.30;;;;;;;;;;5019184;28;20040;-60
2022/04/02 00:05:21;;;;;;;3.33;3.03;;;;;;;;;;5025062;28;20033;-60
2022/04/02 00:07:46;;;;;;;3.72;3.28;;;;;;;;;;5016199;28;20033;-60
2022/04/02 00:10:12;;;;;;;3.55;3.25;;;;;;;;;;5030470;28;20115;-60
2022/04/02 00:12:39;;;;;;;5.38;3.30;;;;;;;;;;5020452;28;20029;-61
2022/04/02 00:15:05;;;;;;;3.75;3.45;;;;;;;;;;5031507;28;20033;-58
2022/04/02 00:17:33;;;;;;;3.22;3.03;;;;;;;;;;5025295;28;20033;-60
2022/04/02 00:19:59;;;;;;;3.30;3.10;;;;;;;;;;5034597;28;20082;-60
2022/04/02 00:22:24;;;;;;;3.70;3.40;;;;;;;;;;5031251;28;20538;-61
2022/04/02 00:24:50;;;;;;;3.15;2.88;;;;;;;;;;5026663;28;20388;-60
2022/04/02 00:27:16;;;;;;;2.95;2.75;;;;;;;;;;5029062;28;20037;-60
2022/04/02 00:29:42;;;;;;;4.03;3.53;;;;;;;;;;5022612;28;20030;-60
2022/04/02 00:32:08;;;;;;;3.08;2.88;;;;;;;;;;5029250;28;20026;-60
2022/04/02 00:34:34;;;;;;;3.40;3.20;;;;;;;;;;5020446;28;20030;-60
2022/04/02 00:37:00;;;;;;;5.78;3.40;;;;;;;;;;5024170;28;20040;-60
2022/04/02 00:39:25;;;;;;;3.80;3.50;;;;;;;;;;5021732;28;20035;-60
2022/04/02 00:41:51;;;;;;;4.00;3.70;;;;;;;;;;5027974;28;20433;-60
2022/04/02 00:44:17;;;;;;;3.53;3.22;;;;;;;;;;5028734;28;20048;-61
2022/04/02 00:46:44;;;;;;;3.70;3.35;;;;;;;;;;5022206;28;20037;-60
2022/04/02 00:49:11;;;;;;;3.63;3.33;;;;;;;;;;5022227;28;20040;-60
2022/04/02 00:51:41;;;;;;;4.20;3.80;;;;;;;;;;5024177;28;20024;-61
2022/04/02 00:54:09;;;;;;;3.13;2.92;;;;;;;;;;5017256;28;20040;-61
2022/04/02 00:56:39;;;;;;;3.65;2.75;;;;;;;;;;5027029;28;20033;-60
2022/04/02 00:59:05;;;;;;;3.13;2.92;;;;;;;;;;5024933;28;20037;-59
2022/04/02 01:01:31;;;;;;;3.25;3.05;;;;;;;;;;5025546;28;20099;-60
2022/04/02 01:03:59;;;;;;;2.90;2.70;;;;;;;;;;5024944;28;20129;-60
2022/04/02 01:06:27;;;;;;;3.00;2.80;;;;;;;;;;5032477;28;20055;-59
2022/04/02 01:08:54;;;;;;;9.00;2.90;;;;;;;;;;5038740;28;20036;-60
2022/04/02 01:11:20;;;;;;;3.00;2.80;;;;;;;;;;5030640;28;20474;-60
2022/04/02 01:13:45;;;;;;;2.80;2.60;;;;;;;;;;5027139;28;20037;-59
2022/04/02 01:16:11;;;;;;;2.85;2.65;;;;;;;;;;5020512;28;20116;-60
2022/04/02 01:18:37;;;;;;;5.20;2.33;;;;;;;;;;5026982;28;20114;-60
2022/04/02 01:21:03;;;;;;;2.67;2.47;;;;;;;;;;5020953;28;20136;-59
2022/04/02 01:23:29;;;;;;;2.90;2.65;;;;;;;;;;5018902;28;20076;-57
2022/04/02 01:25:59;;;;;;;2.75;2.55;;;;;;;;;;5021633;28;20041;-60
2022/04/02 01:28:33;;;;;;;3.20;2.40;;;;;;;;;;5028561;28;20098;-59
2022/04/02 01:31:06;;;;;;;2.60;2.40;;;;;;;;;;5024490;28;20466;-60
2022/04/02 01:33:32;;;;;;;2.95;2.75;;;;;;;;;;5028419;28;20037;-60
2022/04/02 01:36:03;;;;;;;4.60;2.45;;;;;;;;;;5018712;28;20733;-60
2022/04/02 01:38:29;;;;;;;2.83;2.63;;;;;;;;;;5024071;28;20038;-60
2022/04/02 01:40:56;;;;;;;2.42;2.33;;;;;;;;;;5014977;28;20057;-60
2022/04/02 01:43:23;;;;;;;3.15;2.40;;;;;;;;;;5023813;28;20034;-61
2022/04/02 01:45:53;;;;;;;2.38;2.25;;;;;;;;;;5024975;28;20061;-60
2022/04/02 01:48:19;;;;;;;2.13;2.03;;;;;;;;;;5020738;28;20038;-60
2022/04/02 01:50:45;;;;;;;2.30;2.10;;;;;;;;;;5023314;28;20558;-59
2022/04/02 01:53:11;;;;;;;2.38;2.10;;;;;;;;;;5030095;28;20108;-60
2022/04/02 01:55:37;;;;;;;2.53;2.08;;;;;;;;;;5025146;28;20029;-60
2022/04/02 01:58:03;;;;;;;4.38;2.10;;;;;;;;;;5024380;28;20092;-60
2022/04/02 02:00:29;;;;;;;2.22;2.13;;;;;;;;;;5020823;28;20045;-61
2022/04/02 02:02:55;;;;;;;1.88;1.77;;;;;;;;;;5023138;28;20517;-60
2022/04/02 02:05:20;;;;;;;1.70;1.60;;;;;;;;;;5018586;28;20129;-60
2022/04/02 02:07:50;;;;;;;1.85;1.75;;;;;;;;;;5021147;28;20111;-59
2022/04/02 02:10:16;;;;;;;1.73;1.63;;;;;;;;;;5031428;28;20558;-61
2022/04/02 02:12:42;;;;;;;5.32;1.48;;;;;;;;;;5026395;28;20033;-60
2022/04/02 02:15:08;;;;;;;4.13;1.50;;;;;;;;;;5021954;28;20033;-59
2022/04/02 02:17:34;;;;;;;1.60;1.50;;;;;;;;;;5019827;28;20038;-60
2022/04/02 02:20:00;;;;;;;1.33;1.25;;;;;;;;;;5029439;28;20487;-59
2022/04/02 02:22:26;;;;;;;1.17;1.17;;;;;;;;;;5024954;28;20611;-60
2022/04/02 02:24:51;;;;;;;1.42;1.33;;;;;;;;;;5025858;28;20060;-60
2022/04/02 02:27:17;;;;;;;1.30;1.30;;;;;;;;;;5018661;28;20052;-60
2022/04/02 02:29:42;;;;;;;1.08;1.08;;;;;;;;;;5028576;28;20113;-60
2022/04/02 02:32:08;;;;;;;4.32;1.45;;;;;;;;;;5023306;28;20064;-59
2022/04/02 02:37:18;;;;;;;1.48;1.38;;;;;;;;;;5019462;28;20203;-60
2022/04/02 02:39:44;;;;;;;1.42;1.33;;;;;;;;;;5014323;28;20080;-60
2022/04/02 02:42:11;;;;;;;3.10;1.50;;;;;;;;;;5013933;28;20041;-60
2022/04/02 02:44:36;;;;;;;1.40;1.40;;;;;;;;;;5024921;28;20045;-60
2022/04/02 02:47:02;;;;;;;1.50;1.50;;;;;;;;;;5021433;28;20091;-61
2022/04/02 02:49:28;;;;;;;1.80;1.70;;;;;;;;;;5021985;28;20090;-60
2022/04/02 02:51:53;;;;;;;6.10;1.63;;;;;;;;;;5017629;28;20031;-60
2022/04/02 02:54:19;;;;;;;1.70;1.60;;;;;;;;;;5019635;28;20077;-60
2022/04/02 02:56:45;;;;;;;1.90;1.80;;;;;;;;;;5025878;28;20037;-56
2022/04/02 02:59:10;;;;;;;2.00;1.90;;;;;;;;;;5031371;28;20052;-60
2022/04/02 03:01:36;;;;;;;2.05;1.95;;;;;;;;;;5034060;28;20036;-60
2022/04/02 03:04:02;;;;;;;1.98;1.88;;;;;;;;;;5022549;28;20025;-60
2022/04/02 03:06:27;;;;;;;2.00;1.90;;;;;;;;;;5024028;28;20144;-62
2022/04/02 03:08:54;;;;;;;3.20;2.25;;;;;;;;;;5016611;28;20056;-60
2022/04/02 03:11:20;;;;;;;2.20;2.00;;;;;;;;;;5020540;28;20030;-61
2022/04/02 03:13:45;;;;;;;1.95;1.85;;;;;;;;;;5019019;28;20064;-60
2022/04/02 03:16:11;;;;;;;6.47;2.40;;;;;;;;;;5024738;28;20052;-61
2022/04/02 03:18:37;;;;;;;2.50;2.38;;;;;;;;;;5018189;28;20079;-60
2022/04/02 03:21:02;;;;;;;2.80;2.60;;;;;;;;;;5014363;28;20037;-61
2022/04/02 03:23:28;;;;;;;2.80;2.47;;;;;;;;;;5026125;28;20045;-61
2022/04/02 03:25:54;;;;;;;2.65;2.53;;;;;;;;;;5021401;28;20033;-61
2022/04/02 03:28:19;;;;;;;2.55;2.35;;;;;;;;;;5019435;28;20107;-61
2022/04/02 03:30:45;;;;;;;2.38;2.28;;;;;;;;;;5018485;28;20509;-61
2022/04/02 03:33:11;;;;;;;3.67;2.70;;;;;;;;;;5014016;28;20029;-61
2022/04/02 03:35:37;;;;;;;2.17;2.08;;;;;;;;;;5023515;28;22240;-60
2022/04/02 03:38:03;;;;;;;3.15;2.55;;;;;;;;;;5018883;28;20218;-60
2022/04/02 03:40:29;;;;;;;2.35;2.25;;;;;;;;;;5024136;28;20028;-60
2022/04/02 03:42:56;;;;;;;2.40;2.30;;;;;;;;;;5024734;28;20046;-60
2022/04/02 03:45:22;;;;;;;3.70;3.30;;;;;;;;;;5020953;28;20037;-60
2022/04/02 03:47:48;;;;;;;7.28;3.00;;;;;;;;;;5024010;28;20670;-60
2022/04/02 03:50:15;;;;;;;3.42;3.13;;;;;;;;;;5028462;28;20052;-61
2022/04/02 03:52:40;;;;;;;3.60;3.30;;;;;;;;;;5016605;28;20033;-61
2022/04/02 03:55:07;;;;;;;5.35;3.20;;;;;;;;;;5015214;28;20597;-61
2022/04/02 03:57:34;;;;;;;3.83;3.53;;;;;;;;;;5017263;28;20063;-60
2022/04/02 04:00:02;;;;;;;3.70;3.40;;;;;;;;;;5016884;28;20124;-61
2022/04/02 04:02:34;;;;;;;7.45;3.50;;;;;;;;;;5016790;28;20030;-60
2022/04/02 04:05:00;;;;;;;3.60;3.20;;;;;;;;;;5015621;28;20037;-61
2022/04/02 04:07:26;;;;;;;3.72;2.95;;;;;;;;;;5018678;28;20030;-61
2022/04/02 04:09:51;;;;;;;8.80;3.67;;;;;;;;;;5016403;28;20079;-60
2022/04/02 04:12:17;;;;;;;6.43;3.80;;;;;;;;;;5013498;28;20038;-61
2022/04/02 04:14:45;;;;;;;3.47;3.17;;;;;;;;;;5016154;28;21158;-60
2022/04/02 04:17:11;;;;;;;5.35;3.30;;;;;;;;;;5024848;28;20036;-60
2022/04/02 04:19:37;;;;;;;4.65;3.10;;;;;;;;;;5010840;28;20057;-62
2022/04/02 04:22:03;;;;;;;7.03;3.72;;;;;;;;;;5022380;28;20066;-62
2022/04/02 04:24:30;;;;;;;8.35;3.63;;;;;;;;;;5016854;28;20374;-60
2022/04/02 04:26:56;;;;;;;5.32;3.78;;;;;;;;;;5016884;28;20044;-60
2022/04/02 04:29:21;;;;;;;3.42;3.13;;;;;;;;;;5022743;28;20025;-61
2022/04/02 04:31:47;;;;;;;3.80;3.50;;;;;;;;;;5021066;28;20033;-61
2022/04/02 04:34:13;;;;;;;6.45;3.50;;;;;;;;;;5024568;28;20078;-61
2022/04/02 04:36:38;;;;;;;3.88;3.58;;;;;;;;;;5021512;28;20029;-62
2022/04/02 04:39:05;;;;;;;4.38;3.33;;;;;;;;;;5011815;28;20034;-61
2022/04/02 04:41:31;;;;;;;3.65;3.42;;;;;;;;;;5017334;28;20042;-61
2022/04/02 04:43:57;;;;;;;4.07;3.00;;;;;;;;;;5021262;28;20065;-60
2022/04/02 04:46:24;;;;;;;6.88;3.47;;;;;;;;;;5022416;28;20102;-60
2022/04/02 04:48:50;;;;;;;3.80;3.30;;;;;;;;;;5018434;28;20037;-60
2022/04/02 04:51:18;;;;;;;3.92;3.63;;;;;;;;;;5036437;28;20534;-60
2022/04/02 04:53:44;;;;;;;3.72;3.40;;;;;;;;;;5026663;28;20034;-60
2022/04/02 04:56:10;;;;;;;3.50;3.20;;;;;;;;;;5024566;28;20049;-61
2022/04/02 04:58:35;;;;;;;10.50;3.47;;;;;;;;;;5033841;28;20653;-60
2022/04/02 05:01:01;;;;;;;9.73;3.53;;;;;;;;;;5031237;28;20033;-60
2022/04/02 05:03:27;;;;;;;3.78;2.83;;;;;;;;;;5021607;28;20036;-60
2022/04/02 05:05:54;;;;;;;3.80;3.40;;;;;;;;;;5029103;28;20041;-60
2022/04/02 05:08:21;;;;;;;4.57;2.80;;;;;;;;;;5022524;28;20452;-60
2022/04/02 05:10:47;;;;;;;3.38;3.13;;;;;;;;;;5019608;28;20029;-60
2022/04/02 05:13:14;;;;;;;4.60;2.92;;;;;;;;;;5020434;28;20549;-62
2022/04/02 05:15:41;;;;;;;3.58;3.28;;;;;;;;;;5022622;28;20040;-60
2022/04/02 05:18:09;;;;;;;6.20;3.20;;;;;;;;;;5018445;28;20025;-61
2022/04/02 05:20:36;;;;;;;9.43;2.90;;;;;;;;;;5023208;28;20124;-61
2022/04/02 05:23:02;;;;;;;4.03;3.05;;;;;;;;;;5027358;28;20060;-61
2022/04/02 05:25:28;;;;;;;3.17;2.88;;;;;;;;;;5030646;28;20036;-62
2022/04/02 05:27:54;;;;;;;4.40;3.03;;;;;;;;;;5022697;28;20030;-61
2022/04/02 05:30:20;;;;;;;4.15;3.60;;;;;;;;;;5016170;28;20033;-60
2022/04/02 05:32:46;;;;;;;9.75;3.55;;;;;;;;;;5018173;28;20076;-61
2022/04/02 05:35:12;;;;;;;3.80;3.40;;;;;;;;;;5026809;28;20050;-61
2022/04/02 05:37:45;;;;;;;4.53;3.00;;;;;;;;;;5026587;28;20030;-60
2022/04/02 05:40:11;;;;;;;2.67;2.47;;;;;;;;;;5019209;28;20133;-62
2022/04/02 05:42:37;;;;;;;5.50;3.05;;;;;;;;;;5020562;28;20511;-61
2022/04/02 05:45:05;;;;;;;3.35;3.05;;;;;;;;;;5020260;28;20113;-61
2022/04/02 05:47:50;;;;;;;5.45;3.30;;;;;;;;;;5019258;28;20037;-61
2022/04/02 05:50:18;;;;;;;5.03;3.20;;;;;;;;;;5037419;28;20492;-61
2022/04/02 05:52:44;;;;;;;3.28;3.08;;;;;;;;;;5019411;28;20021;-62
2022/04/02 05:55:11;;;;;;;3.45;2.85;;;;;;;;;;5025058;28;20037;-63
2022/04/02 05:57:39;;;;;;;4.00;3.70;;;;;;;;;;5021100;28;20131;-63
2022/04/02 06:00:06;;;;;;;5.63;2.80;;;;;;;;;;5019299;28;20038;-63
2022/04/02 06:02:33;;;;;;;3.92;3.63;;;;;;;;;;5016028;28;20435;-61
2022/04/02 06:04:59;;;;;;;4.10;3.45;;;;;;;;;;5024470;28;20098;-63
2022/04/02 06:07:25;;;;;;;3.50;3.20;;;;;;;;;;5021150;28;20060;-62
2022/04/02 06:09:50;;;;;;;3.60;3.30;;;;;;;;;;5022470;28;20033;-62
2022/04/02 06:12:16;;;;;;;3.22;3.03;;;;;;;;;;5013105;28;20089;-62
2022/04/02 06:14:42;;;;;;;8.13;3.70;;;;;;;;;;5012300;28;20040;-62
2022/04/02 06:17:08;;;;;;;3.67;3.30;;;;;;;;;;5018767;28;20030;-61
2022/04/02 06:19:33;;;;;;;6.18;3.63;;;;;;;;;;5022657;28;20029;-62
2022/04/02 06:21:59;;;;;;;4.25;3.30;;;;;;;;;;5019111;28;20113;-62
2022/04/02 06:24:25;;;;;;;4.32;3.92;;;;;;;;;;5014475;28;20091;-62
2022/04/02 06:26:50;;;;;;;4.75;3.78;;;;;;;;;;5015809;28;20034;-62
2022/04/02 06:29:16;;;;;;;4.28;3.88;;;;;;;;;;5012562;28;20038;-65
2022/04/02 06:31:42;;;;;;;3.65;3.35;;;;;;;;;;5011788;28;20121;-63
2022/04/02 06:34:08;;;;;;;4.20;3.67;;;;;;;;;;5010940;28;20068;-62
2022/04/02 06:36:33;;;;;;;4.63;4.22;;;;;;;;;;5020791;28;20061;-61
2022/04/02 06:38:59;;;;;;;4.65;4.25;;;;;;;;;;5019729;28;20029;-62
2022/04/02 06:41:25;;;;;;;5.20;3.63;;;;;;;;;;5016586;28;20098;-64
2022/04/02 06:43:50;;;;;;;7.85;4.35;;;;;;;;;;5017545;28;20033;-61
2022/04/02 06:46:16;;;;;;;5.03;4.38;;;;;;;;;;5017778;28;20072;-62
2022/04/02 06:48:42;;;;;;;5.10;4.70;;;;;;;;;;5020607;28;20041;-62
2022/04/02 06:51:08;;;;;;;6.28;5.03;;;;;;;;;;5010892;28;20041;-61
2022/04/02 06:53:34;;;;;;;6.65;3.95;;;;;;;;;;5018699;28;20092;-64
2022/04/02 06:56:00;;;;;;;11.80;4.60;;;;;;;;;;5020007;28;20052;-61
2022/04/02 06:58:33;;;;;;;5.43;4.50;;;;;;;;;;5015976;28;20490;-59
2022/04/02 07:00:59;;;;;;;4.43;4.03;;;;;;;;;;5021160;28;20109;-62
2022/04/02 07:03:25;;;;;;;5.07;4.68;;;;;;;;;;5020883;28;20117;-61
2022/04/02 07:05:51;;;;;;;14.60;4.80;;;;;;;;;;5017281;28;20045;-62
2022/04/02 07:08:17;;;;;;;12.23;5.18;;;;;;;;;;5015119;28;20407;-64
2022/04/02 07:10:43;;;;;;;6.32;4.60;;;;;;;;;;5016459;28;20482;-62
2022/04/02 07:13:08;;;;;;;5.68;5.18;;;;;;;;;;5019297;28;20109;-61
2022/04/02 07:15:34;;;;;;;8.90;5.30;;;;;;;;;;5022560;28;20029;-61
2022/04/02 07:18:08;;;;;;;5.57;4.97;;;;;;;;;;5016225;28;20454;-61
2022/04/02 07:20:36;;;;;;;12.40;5.82;;;;;;;;;;5023113;28;20029;-62
2022/04/02 07:23:04;;;;;;;6.38;5.82;;;;;;;;;;5019819;28;20033;-61
2022/04/02 07:25:30;;;;;;;6.75;5.90;;;;;;;;;;5024456;28;20037;-62
2022/04/02 07:27:57;;;;;;;9.35;5.53;;;;;;;;;;5015509;28;20651;-61
2022/04/02 07:30:24;;;;;;;6.40;5.80;;;;;;;;;;5014524;28;20128;-61
2022/04/02 07:32:51;;;;;;;7.47;5.80;;;;;;;;;;5020861;28;20037;-61
2022/04/02 07:35:17;;;;;;;6.90;6.20;;;;;;;;;;5027313;28;20537;-61
2022/04/02 07:37:58;;;;;;;6.97;6.13;;;;;;;;;;5023216;28;20097;-62
2022/04/02 07:40:28;;;;;;;8.85;5.70;;;;;;;;;;5018680;28;20436;-61
2022/04/02 07:43:12;;;;;;;6.07;5.53;;;;;;;;;;5016871;28;20095;-61
2022/04/02 07:45:40;;;;;;;6.72;6.13;;;;;;;;;;5019216;28;20056;-61
2022/04/02 07:48:08;;;;;;;6.53;5.65;;;;;;;;;;5028600;28;20040;-61
2022/04/02 07:50:34;;;;;;;6.30;5.70;;;;;;;;;;5028375;28;20125;-61
2022/04/02 07:53:06;;;;;;;5.50;5.00;;;;;;;;;;5021411;28;20034;-61
2022/04/02 07:55:35;;;;;;;9.98;4.63;;;;;;;;;;5022975;28;20022;-61
2022/04/02 07:58:05;;;;;;;8.57;5.40;;;;;;;;;;5011708;28;20029;-61
2022/04/02 08:00:33;;;;;;;5.68;5.20;;;;;;;;;;5017967;28;20561;-61
2022/04/02 08:03:00;;;;;;;6.40;4.95;;;;;;;;;;5017517;28;20037;-61
2022/04/02 08:05:26;;;;;;;10.43;5.22;;;;;;;;;;5018785;28;20048;-61
2022/04/02 08:07:55;;;;;;;5.25;4.65;;;;;;;;;;5018526;28;20026;-62
2022/04/02 08:10:24;;;;;;;6.70;4.32;;;;;;;;;;5015812;28;20486;-62
2022/04/02 08:12:50;;;;;;;4.88;4.45;;;;;;;;;;5014556;28;20064;-61
2022/04/02 08:15:19;;;;;;;12.80;4.50;;;;;;;;;;5019424;28;20054;-61
2022/04/02 08:17:46;;;;;;;7.07;4.20;;;;;;;;;;5012519;28;20026;-61
2022/04/02 08:20:15;;;;;;;6.90;4.43;;;;;;;;;;5020616;28;20034;-61
2022/04/02 08:22:45;;;;;;;3.92;3.63;;;;;;;;;;5020415;28;20478;-61
2022/04/02 08:25:11;;;;;;;4.07;3.70;;;;;;;;;;5020878;28;20044;-61
2022/04/02 08:27:46;;;;;;;7.75;3.75;;;;;;;;;;5019765;28;20100;-61
2022/04/02 08:30:17;;;;;;;4.45;3.70;;;;;;;;;;5016613;28;20030;-61
2022/04/02 08:33:10;;;;;;;4.07;3.78;;;;;;;;;;5028896;28;20075;-61
2022/04/02 08:35:45;;;;;;;6.85;3.85;;;;;;;;;;5022391;28;20065;-61
2022/04/02 08:38:38;;;;;;;5.72;3.08;;;;;;;;;;5031557;28;20064;-61
2022/04/02 08:41:09;;;;;;;4.28;3.97;;;;;;;;;;5023767;28;20069;-59
2022/04/02 08:44:05;;;;;;;3.85;3.55;;;;;;;;;;5025595;28;20569;-62
2022/04/02 08:46:37;;;;;;;7.22;4.93;;;;;;;;;;5025485;28;20394;-60
2022/04/02 08:49:08;;;;;;;6.05;4.57;;;;;;;;;;5024823;28;20045;-61
2022/04/02 08:51:46;;;;;;;9.35;3.42;;;;;;;;;;5017684;28;20506;-62
2022/04/02 08:54:27;;;;;;;4.00;3.70;;;;;;;;;;5020080;28;20040;-61
2022/04/02 08:57:06;;;;;;;11.52;3.63;;;;;;;;;;5027370;28;20033;-61
2022/04/02 08:59:40;;;;;;;3.80;3.45;;;;;;;;;;5030365;28;20083;-61
2022/04/02 09:02:40;;;;;;;3.58;3.28;;;;;;;;;;5023571;28;20679;-61
2022/04/02 09:05:09;;;;;;;7.30;3.30;;;;;;;;;;5021691;28;20038;-58
2022/04/02 09:08:02;;;;;;;3.50;2.88;;;;;;;;;;5025781;28;20459;-62
2022/04/02 09:11:00;;;;;;;3.20;3.00;;;;;;;;;;5014836;28;20026;-63
2022/04/02 09:13:47;;;;;;;5.38;3.30;;;;;;;;;;5017382;28;20466;-62
2022/04/02 09:16:26;;;;;;;12.82;3.65;;;;;;;;;;5023799;28;20056;-62
2022/04/02 09:19:13;;;;;;;5.32;3.45;;;;;;;;;;5018876;28;20076;-63
2022/04/02 09:21:54;;;;;;;6.80;3.33;;;;;;;;;;5020375;28;20029;-63
2022/04/02 09:24:41;;;;;;;9.73;3.33;;;;;;;;;;5016370;28;20087;-63
2022/04/02 09:27:12;;;;;;;8.95;3.25;;;;;;;;;;5022851;28;20453;-60
2022/04/02 09:29:57;;;;;;;7.85;3.30;;;;;;;;;;5025684;28;20088;-63
2022/04/02 09:33:00;;;;;;;3.58;3.38;;;;;;;;;;5028099;28;20398;-62
2022/04/02 09:35:32;;;;;;;3.70;2.90;;;;;;;;;;5024420;28;20100;-62
2022/04/02 09:38:46;;;;;;;3.83;3.42;;;;;;;;;;5014393;28;20041;-62
2022/04/02 09:41:49;;;;;;;3.80;3.50;;;;;;;;;;4967432;28;20130;-62
2022/04/02 09:44:18;;;;;;;;;;;;;;;;;;4968897;28;20039;-62
2022/04/02 09:46:59;;;;;;;7.68;3.60;;;;;;;;;;4966778;28;19984;-63
2022/04/02 09:49:41;;;;;;;3.40;3.05;;;;;;;;;;4965972;28;20034;-63
2022/04/02 09:52:08;;;;;;;4.22;2.90;;;;;;;;;;4961850;28;20098;-62
2022/04/02 09:55:02;;;;;;;5.53;3.20;;;;;;;;;;4966867;28;20494;-63
2022/04/02 09:57:34;;;;;;;5.45;2.90;;;;;;;;;;4963546;28;20044;-62
2022/04/02 10:00:08;;;;;;;9.32;3.22;;;;;;;;;;4967112;28;20539;-63
2022/04/02 10:03:06;;;;;;;6.55;3.20;;;;;;;;;;4968238;28;20039;-62
2022/04/02 10:05:46;;;;;;;3.10;2.85;;;;;;;;;;4968202;28;20117;-63
2022/04/02 10:08:33;;;;;;;6.07;2.75;;;;;;;;;;4966683;28;20039;-63
2022/04/02 10:11:01;;;;;;;4.72;3.05;;;;;;;;;;4964973;28;20105;-62
2022/04/02 10:13:32;;;;;;;6.18;2.50;;;;;;;;;;4968679;28;20809;-62
2022/04/02 10:15:59;;;;;;;3.47;2.90;;;;;;;;;;4974779;28;20544;-63
2022/04/02 10:18:26;;;;;;;5.70;3.92;;;;;;;;;;5020060;28;20037;-62
2022/04/02 10:20:53;;;;;;;9.23;2.63;;;;;;;;;;5023274;28;20045;-62
2022/04/02 10:23:25;;;;;;;2.83;2.63;;;;;;;;;;5031409;28;20041;-64
2022/04/02 10:26:02;;;;;;;3.90;2.60;;;;;;;;;;5015796;28;20030;-61
2022/04/02 10:28:30;;;;;;;4.55;2.58;;;;;;;;;;5025708;28;20032;-61
2022/04/02 10:30:57;;;;;;;8.35;2.28;;;;;;;;;;5023548;28;20036;-63
2022/04/02 10:33:28;;;;;;;2.58;2.38;;;;;;;;;;5027386;28;20033;-63
2022/04/02 10:35:56;;;;;;;4.57;2.95;;;;;;;;;;5019848;28;20034;-62
2022/04/02 10:38:33;;;;;;;5.50;3.30;;;;;;;;;;5016807;28;20042;-63
2022/04/02 10:41:13;;;;;;;3.92;2.67;;;;;;;;;;5018864;28;20053;-63
2022/04/02 10:43:58;;;;;;;2.78;2.58;;;;;;;;;;5022520;28;20034;-62
2022/04/02 10:46:25;;;;;;;2.90;2.70;;;;;;;;;;5017062;28;20056;-62
2022/04/02 10:49:00;;;;;;;2.70;2.50;;;;;;;;;;5019790;28;20034;-62
2022/04/02 10:51:29;;;;;;;5.38;2.30;;;;;;;;;;5022133;28;20044;-63
2022/04/02 10:54:04;;;;;;;6.53;2.50;;;;;;;;;;5024181;28;20040;-63
2022/04/02 10:56:43;;;;;;;3.40;2.17;;;;;;;;;;5019728;28;20091;-67
2022/04/02 10:59:12;;;;;;;2.40;2.20;;;;;;;;;;5027422;28;20576;-66
2022/04/02 11:01:42;;;;;;;4.00;2.50;;;;;;;;;;5028470;28;20056;-65
2022/04/02 11:04:32;;;;;;;2.67;2.45;;;;;;;;;;5014362;28;20072;-62
2022/04/02 11:06:59;;;;;;;6.38;2.75;;;;;;;;;;5017752;28;20080;-63
2022/04/02 11:09:36;;;;;;;4.85;2.50;;;;;;;;;;5017852;28;20467;-66
2022/04/02 11:12:06;;;;;;;8.07;2.30;;;;;;;;;;5014165;28;20034;-64
2022/04/02 11:14:43;;;;;;;7.38;2.95;;;;;;;;;;5021235;28;20057;-63
2022/04/02 11:17:32;;;;;;;10.48;2.72;;;;;;;;;;5025422;28;20072;-62
2022/04/02 11:20:15;;;;;;;6.55;5.03;;;;;;;;;;5023549;28;20456;-61
2022/04/02 11:22:47;;;;;;;7.25;6.38;;;;;;;;;;5020767;28;20037;-61
2022/04/02 11:25:36;;;;;;;8.50;6.53;;;;;;;;;;5026199;28;20048;-64
2022/04/02 11:28:05;;;;;;;3.22;2.42;;;;;;;;;;5011522;28;20033;-62
2022/04/02 11:30:33;;;;;;;8.18;2.60;;;;;;;;;;5013829;28;20065;-61
2022/04/02 11:33:16;;;;;;;4.63;4.10;;;;;;;;;;5012896;28;20060;-61
2022/04/02 11:35:53;;;;;;;3.47;3.13;;;;;;;;;;5019894;28;20030;-62
2022/04/02 11:38:20;;;;;;;4.05;3.75;;;;;;;;;;5024147;28;20374;-62
2022/04/02 11:41:01;;;;;;;4.00;2.47;;;;;;;;;;5029469;28;20056;-61
2022/04/02 11:43:36;;;;;;;5.28;3.42;;;;;;;;;;5022419;28;20073;-62
2022/04/02 11:46:07;;;;;;;7.45;3.28;;;;;;;;;;5014339;28;20069;-62
2022/04/02 11:48:36;;;;;;;2.80;2.60;;;;;;;;;;5014643;28;20091;-61
2022/04/02 11:51:33;;;;;;;2.83;2.63;;;;;;;;;;5017346;28;20038;-62
2022/04/02 11:54:10;;;;;;;3.13;2.50;;;;;;;;;;4994913;28;20095;-63
2022/04/02 11:56:43;;;;;;;3.17;2.40;;;;;;;;;;5019574;28;20101;-63
2022/04/02 11:59:09;;;;;;;;;;;;;;;;;;5026375;28;20072;-63
2022/04/02 12:01:45;;;;;;;3.45;2.70;;;;;;;;;;5021328;28;19949;-63
2022/04/02 12:04:14;;;;;;;3.33;2.72;;;;;;;;;;5023577;28;20033;-62
2022/04/02 12:06:44;;;;;;;8.52;2.35;;;;;;;;;;5019110;28;20025;-62
2022/04/02 12:09:22;;;;;;;2.28;2.08;;;;;;;;;;5023081;28;20068;-63
2022/04/02 12:11:51;;;;;;;2.72;2.17;;;;;;;;;;5015162;28;20501;-62
2022/04/02 12:14:34;;;;;;;6.40;2.40;;;;;;;;;;5023584;28;20030;-63
2022/04/02 12:17:12;;;;;;;3.25;2.47;;;;;;;;;;5021628;28;20062;-63
2022/04/02 12:19:41;;;;;;;2.22;2.10;;;;;;;;;;5020008;28;20034;-63
2022/04/02 12:22:18;;;;;;;2.38;2.17;;;;;;;;;;5020628;28;20052;-62
2022/04/02 12:24:48;;;;;;;3.65;2.75;;;;;;;;;;5021457;28;20029;-62
2022/04/02 12:27:28;;;;;;;2.85;2.65;;;;;;;;;;5015130;28;20026;-62
2022/04/02 12:29:56;;;;;;;2.92;2.70;;;;;;;;;;5013318;28;20022;-62
2022/04/02 12:32:29;;;;;;;2.92;2.72;;;;;;;;;;5018518;28;20479;-62
2022/04/02 12:35:07;;;;;;;14.80;3.05;;;;;;;;;;5017749;28;20034;-62
2022/04/02 12:37:46;;;;;;;2.78;2.58;;;;;;;;;;5015578;28;20104;-62
2022/04/02 12:40:24;;;;;;;3.38;3.00;;;;;;;;;;5022986;28;20107;-62
2022/04/02 12:42:53;;;;;;;5.30;2.67;;;;;;;;;;5024502;28;20465;-62
2022/04/02 12:45:24;;;;;;;4.43;2.88;;;;;;;;;;5021864;28;20053;-62
2022/04/02 12:48:00;;;;;;;10.77;3.22;;;;;;;;;;5021913;28;20018;-62
2022/04/02 12:50:29;;;;;;;2.72;2.53;;;;;;;;;;5024868;28;20087;-62
2022/04/02 12:52:54;;;;;;;3.03;2.60;;;;;;;;;;5029014;28;20030;-61
2022/04/02 12:55:22;;;;;;;2.70;2.20;;;;;;;;;;5022620;28;20055;-63
2022/04/02 12:58:07;;;;;;;2.47;2.08;;;;;;;;;;5010490;28;20040;-63
2022/04/02 13:00:36;;;;;;;5.50;3.22;;;;;;;;;;5016946;28;20069;-65
2022/04/02 13:03:03;;;;;;;5.25;4.00;;;;;;;;;;5012740;28;20041;-62
2022/04/02 13:05:47;;;;;;;2.78;2.58;;;;;;;;;;5021188;28;20037;-62
2022/04/02 13:08:24;;;;;;;3.38;2.30;;;;;;;;;;5012655;28;20065;-63
2022/04/02 13:10:55;;;;;;;7.30;2.63;;;;;;;;;;5015153;28;20478;-62
2022/04/02 13:13:40;;;;;;;2.65;2.45;;;;;;;;;;5016507;28;20064;-63
2022/04/02 13:16:11;;;;;;;2.30;2.20;;;;;;;;;;5021231;28;20063;-63
2022/04/02 13:21:32;;;;;;;3.00;2.78;;;;;;;;;;5017833;28;20356;-65
2022/04/02 13:24:16;;;;;;;2.97;2.78;;;;;;;;;;5018172;28;20029;-63
2022/04/02 13:26:55;;;;;;;2.40;2.30;;;;;;;;;;5020173;28;20030;-64
2022/04/02 13:30:02;;;;;;;5.35;2.35;;;;;;;;;;5017436;28;20040;-64
2022/04/02 13:32:49;;;;;;;3.03;2.83;;;;;;;;;;4976361;28;20117;-64
2022/04/02 13:35:38;;;;;;;2.70;2.30;;;;;;;;;;4974004;28;20137;-63
2022/04/02 13:38:18;;;;;;;3.60;2.70;;;;;;;;;;4979829;28;20049;-63
2022/04/02 13:40:46;;;;;;;2.60;2.40;;;;;;;;;;4978240;28;20054;-62
2022/04/02 13:43:27;;;;;;;2.40;2.30;;;;;;;;;;4976414;28;20045;-64
2022/04/02 13:45:55;;;;;;;5.80;3.30;;;;;;;;;;4979712;28;20030;-62
2022/04/02 13:48:25;;;;;;;2.63;2.42;;;;;;;;;;4975010;28;20113;-63
2022/04/02 13:51:07;;;;;;;2.25;2.15;;;;;;;;;;4987902;28;20082;-62
2022/04/02 13:53:36;;;;;;;6.18;2.30;;;;;;;;;;4981803;28;20030;-65
2022/04/02 13:56:19;;;;;;;3.05;2.53;;;;;;;;;;4972789;28;20424;-62
2022/04/02 13:58:47;;;;;;;4.35;2.50;;;;;;;;;;4976336;28;20053;-62
2022/04/02 14:01:16;;;;;;;13.45;2.33;;;;;;;;;;4975677;28;20037;-63
2022/04/02 14:04:03;;;;;;;5.57;2.33;;;;;;;;;;4977888;28;20069;-63
2022/04/02 14:06:30;;;;;;;2.65;2.45;;;;;;;;;;4978488;28;20538;-62
2022/04/02 14:09:04;;;;;;;4.30;2.78;;;;;;;;;;4996678;28;20099;-63
2022/04/02 14:11:41;;;;;;;2.20;2.10;;;;;;;;;;5021120;28;20093;-62
2022/04/02 14:14:06;;;;;;;2.63;2.42;;;;;;;;;;5026702;28;20038;-62
2022/04/02 14:16:37;;;;;;;2.28;2.15;;;;;;;;;;5025288;28;20039;-63
2022/04/02 14:19:12;;;;;;;4.18;2.58;;;;;;;;;;5020908;28;20489;-63
2022/04/02 14:21:39;;;;;;;7.10;2.20;;;;;;;;;;5020567;28;20032;-63
2022/04/02 14:24:20;;;;;;;2.97;2.38;;;;;;;;;;5022137;28;20037;-63
2022/04/02 14:27:11;;;;;;;2.67;2.47;;;;;;;;;;5014467;28;20044;-64
2022/04/02 14:29:58;;;;;;;3.30;2.25;;;;;;;;;;5026145;28;20116;-63
2022/04/02 14:32:39;;;;;;;2.40;2.20;;;;;;;;;;5024137;28;20033;-63
2022/04/02 14:35:30;;;;;;;2.58;2.38;;;;;;;;;;5014712;28;20086;-63
2022/04/02 14:38:20;;;;;;;2.22;2.13;;;;;;;;;;5016530;28;20018;-63
2022/04/02 14:41:13;;;;;;;2.67;2.47;;;;;;;;;;5022209;28;20474;-64
2022/04/02 14:43:48;;;;;;;3.10;2.40;;;;;;;;;;5021635;28;20419;-62
2022/04/02 14:46:23;;;;;;;3.65;2.45;;;;;;;;;;5015664;28;20037;-62
2022/04/02 14:49:10;;;;;;;2.70;2.50;;;;;;;;;;5019859;28;20033;-62
2022/04/02 14:52:17;;;;;;;4.80;2.05;;;;;;;;;;5022962;28;20033;-65
2022/04/02 14:55:08;;;;;;;2.50;2.30;;;;;;;;;;5020606;28;20033;-63
2022/04/02 14:58:09;;;;;;;4.07;2.22;;;;;;;;;;5018270;28;20034;-63
2022/04/02 15:01:03;;;;;;;2.83;2.40;;;;;;;;;;4982877;28;20069;-62
2022/04/02 15:03:47;;;;;;;2.72;2.50;;;;;;;;;;4985268;28;20803;-63
2022/04/02 15:06:14;;;;;;;2.45;2.25;;;;;;;;;;4986292;28;20037;-63
2022/04/02 15:09:06;;;;;;;3.47;3.17;;;;;;;;;;4985842;28;20077;-63
2022/04/02 15:11:41;;;;;;;4.85;2.65;;;;;;;;;;4987060;28;20038;-63
2022/04/02 15:14:13;;;;;;;4.60;2.53;;;;;;;;;;4984435;28;20049;-62